Time;durP1;ratioP1;P1;durP2;ratioP2;P2;SDS_P1;SDS_P2;PMS_P1;PMS_P2;Temp;Humidity;BMP_temperature;BMP_pressure;BME280_temperature;BME280_humidity;BME280_pressure;Samples;Min_cycle;Max_cycle;Signal;HPM_P1;HPM_P2
2022/02/17 00:01:27;;;;;;;22.27;17.33;;;23.20;99.90;;;;;;4208072;28;20394;-76
2022/02/17 00:03:34;;;;;;;33.65;21.08;;;23.30;99.90;;;;;;4205240;28;20062;-74
2022/02/17 00:05:38;;;;;;;28.38;19.58;;;23.40;99.90;;;;;;4200054;28;20048;-77
2022/02/17 00:07:46;;;;;;;24.75;18.65;;;23.40;99.90;;;;;;4204129;28;20059;-77
2022/02/17 00:09:52;;;;;;;26.50;19.17;;;23.40;99.90;;;;;;4200415;28;20435;-76
2022/02/17 00:11:57;;;;;;;23.35;17.70;;;23.40;99.90;;;;;;4215496;28;20056;-78
2022/02/17 00:14:02;;;;;;;24.85;18.50;;;23.40;99.90;;;;;;4199474;28;20127;-77
2022/02/17 00:16:09;;;;;;;23.45;18.40;;;23.50;99.90;;;;;;4200098;28;20072;-76
2022/02/17 00:18:23;;;;;;;23.05;18.05;;;23.60;99.90;;;;;;4200279;28;20055;-78
2022/02/17 00:20:29;;;;;;;47.92;18.45;;;23.50;99.90;;;;;;4200003;28;20048;-78
2022/02/17 00:22:36;;;;;;;31.77;19.23;;;23.60;99.90;;;;;;4196456;28;20045;-78
2022/02/17 00:24:41;;;;;;;25.85;18.33;;;23.60;99.90;;;;;;4196730;28;20662;-77
2022/02/17 00:26:47;;;;;;;26.58;18.45;;;23.70;99.90;;;;;;4197229;28;20463;-78
2022/02/17 00:28:57;;;;;;;24.27;17.38;;;23.60;99.90;;;;;;4197293;28;20388;-78
2022/02/17 00:31:02;;;;;;;26.05;18.17;;;23.70;99.90;;;;;;4197332;28;20040;-78
2022/02/17 00:33:10;;;;;;;22.90;16.73;;;23.60;99.90;;;;;;4179694;28;20075;-79
2022/02/17 00:35:20;;;;;;;21.55;16.67;;;23.50;99.90;;;;;;4173004;28;20095;-78
2022/02/17 00:37:24;;;;;;;22.10;16.10;;;23.60;99.90;;;;;;4179402;28;20037;-75
2022/02/17 00:39:35;;;;;;;22.27;17.08;;;23.50;99.90;;;;;;4180759;28;20095;-75
2022/02/17 00:41:39;;;;;;;22.15;16.88;;;23.60;99.90;;;;;;4179254;28;20049;-76
2022/02/17 00:43:47;;;;;;;21.98;16.75;;;23.60;99.90;;;;;;4190553;28;20078;-78
2022/02/17 00:45:53;;;;;;;20.75;15.52;;;23.70;99.90;;;;;;4194263;28;20427;-78
2022/02/17 00:48:02;;;;;;;20.48;15.38;;;23.70;99.90;;;;;;4197088;28;20048;-77
2022/02/17 00:50:14;;;;;;;21.70;16.27;;;23.70;99.90;;;;;;4195700;28;20055;-77
2022/02/17 00:52:20;;;;;;;18.92;16.60;;;23.60;99.90;;;;;;4195974;28;20466;-78
2022/02/17 00:54:27;;;;;;;18.63;15.20;;;23.60;99.90;;;;;;4194949;28;20139;-77
2022/02/17 00:56:32;;;;;;;18.55;15.63;;;23.60;99.90;;;;;;4195520;28;20423;-77
2022/02/17 00:58:39;;;;;;;17.95;14.70;;;23.50;99.90;;;;;;4182242;28;20055;-77
2022/02/17 01:00:58;;;;;;;16.83;14.68;;;23.60;99.90;;;;;;4179174;28;20049;-78
2022/02/17 01:03:03;;;;;;;19.17;15.88;;;23.60;99.90;;;;;;4196445;28;20565;-77
2022/02/17 01:05:09;;;;;;;17.83;15.88;;;23.70;99.90;;;;;;4196115;28;20145;-76
2022/02/17 01:07:16;;;;;;;20.63;15.80;;;23.80;99.90;;;;;;4196730;28;20106;-75
2022/02/17 01:09:20;;;;;;;20.60;15.13;;;23.80;99.90;;;;;;4196837;28;20049;-73
2022/02/17 01:11:26;;;;;;;19.15;15.68;;;23.80;99.90;;;;;;4211671;28;20040;-76
2022/02/17 01:13:33;;;;;;;21.35;16.27;;;23.80;99.90;;;;;;4195428;28;20131;-76
2022/02/17 01:15:38;;;;;;;21.15;16.33;;;23.70;99.90;;;;;;4195977;28;20041;-76
2022/02/17 01:17:44;;;;;;;19.42;16.58;;;23.60;99.90;;;;;;4171256;28;20095;-76
2022/02/17 01:19:51;;;;;;;23.05;18.23;;;23.50;99.90;;;;;;4178929;28;20037;-74
2022/02/17 01:21:56;;;;;;;25.17;18.13;;;23.60;99.90;;;;;;4195318;28;20040;-76
2022/02/17 01:24:05;;;;;;;22.13;17.63;;;23.50;99.90;;;;;;4195315;28;20040;-77
2022/02/17 01:26:13;;;;;;;20.30;17.15;;;23.50;99.90;;;;;;4192111;28;20044;-77
2022/02/17 01:28:28;;;;;;;26.08;19.13;;;23.60;99.90;;;;;;4194939;28;20044;-76
2022/02/17 01:30:35;;;;;;;27.30;18.83;;;23.70;99.90;;;;;;4195175;28;20036;-77
2022/02/17 01:32:43;;;;;;;24.25;19.70;;;23.50;99.90;;;;;;4194756;28;20430;-77
2022/02/17 01:34:48;;;;;;;26.38;19.95;;;23.50;99.90;;;;;;4196059;28;20048;-74
2022/02/17 01:36:55;;;;;;;25.17;18.98;;;23.50;99.90;;;;;;4196305;28;20147;-75
2022/02/17 01:39:02;;;;;;;26.20;18.52;;;23.60;99.90;;;;;;4190144;28;20044;-73
2022/02/17 01:41:07;;;;;;;29.65;20.40;;;23.70;99.90;;;;;;4178739;28;20614;-75
2022/02/17 01:43:16;;;;;;;26.33;19.30;;;23.70;99.90;;;;;;4184190;28;20409;-75
2022/02/17 01:45:20;;;;;;;24.73;18.77;;;23.80;99.90;;;;;;4194111;28;20044;-74
2022/02/17 01:47:25;;;;;;;27.55;18.90;;;23.70;99.90;;;;;;4196364;28;20041;-76
2022/02/17 01:49:34;;;;;;;23.45;18.08;;;23.80;99.90;;;;;;4196177;28;20055;-75
2022/02/17 01:51:43;;;;;;;23.83;17.27;;;23.80;99.90;;;;;;4196319;28;20179;-74
2022/02/17 01:53:48;;;;;;;25.23;18.77;;;24.00;99.90;;;;;;4194842;28;20135;-74
2022/02/17 01:55:55;;;;;;;26.55;18.35;;;24.10;99.90;;;;;;4210965;28;20048;-74
2022/02/17 01:58:02;;;;;;;26.38;18.38;;;24.20;99.90;;;;;;4211407;28;20048;-74
2022/02/17 02:00:07;;;;;;;23.63;18.50;;;24.30;99.90;;;;;;4194378;28;20040;-74
2022/02/17 02:02:21;;;;;;;23.15;18.50;;;24.40;99.90;;;;;;4179557;28;20060;-75
2022/02/17 02:04:33;;;;;;;23.27;17.65;;;24.40;99.90;;;;;;4203365;28;20051;-75
2022/02/17 02:06:40;;;;;;;21.77;17.25;;;24.40;99.90;;;;;;4210442;28;20113;-76
2022/02/17 02:08:46;;;;;;;26.10;18.52;;;24.40;99.90;;;;;;4194656;28;20906;-75
2022/02/17 02:10:53;;;;;;;24.10;18.05;;;24.50;99.90;;;;;;4194656;28;20036;-76
2022/02/17 02:13:00;;;;;;;24.63;18.05;;;24.50;99.90;;;;;;4194386;28;20398;-75
2022/02/17 02:15:16;;;;;;;23.05;17.60;;;24.50;99.90;;;;;;4193451;28;20055;-70
2022/02/17 02:17:24;;;;;;;22.05;17.20;;;24.50;99.90;;;;;;4195756;28;20058;-70
2022/02/17 02:19:28;;;;;;;27.90;17.02;;;24.50;99.90;;;;;;4177845;28;20067;-74
2022/02/17 02:21:35;;;;;;;21.10;15.50;;;24.50;99.90;;;;;;4194526;28;20080;-74
2022/02/17 02:23:41;;;;;;;22.27;16.23;;;24.60;99.90;;;;;;4195356;28;20098;-75
2022/02/17 02:25:47;;;;;;;19.98;14.20;;;24.70;99.90;;;;;;4193457;28;20051;-75
2022/02/17 02:27:58;;;;;;;19.33;16.58;;;24.80;99.90;;;;;;4194177;28;20098;-75
2022/02/17 02:30:05;;;;;;;21.17;16.38;;;24.90;99.90;;;;;;4195562;28;20128;-75
2022/02/17 02:32:10;;;;;;;21.48;16.52;;;24.90;99.90;;;;;;4194229;28;20487;-75
2022/02/17 02:34:17;;;;;;;19.98;16.10;;;24.90;99.90;;;;;;4195761;28;20067;-75
2022/02/17 02:36:25;;;;;;;20.73;16.85;;;24.90;99.90;;;;;;4193102;28;20053;-75
2022/02/17 02:38:34;;;;;;;18.63;15.65;;;25.00;99.90;;;;;;4194606;28;20562;-75
2022/02/17 02:40:40;;;;;;;19.27;15.73;;;25.00;99.90;;;;;;4195376;28;20090;-75
2022/02/17 02:42:51;;;;;;;20.25;15.45;;;25.10;99.90;;;;;;4177537;28;20699;-75
2022/02/17 02:44:56;;;;;;;21.77;16.73;;;25.10;99.90;;;;;;4193643;28;20048;-75
2022/02/17 02:47:03;;;;;;;18.35;13.63;;;25.10;99.90;;;;;;4189790;28;20114;-74
2022/02/17 02:49:20;;;;;;;18.42;13.27;;;24.90;99.90;;;;;;4190520;28;20040;-74
2022/02/17 02:51:26;;;;;;;15.02;13.02;;;24.90;99.90;;;;;;4195290;28;20536;-74
2022/02/17 02:53:31;;;;;;;15.55;12.23;;;25.10;99.90;;;;;;4194980;28;20060;-75
2022/02/17 02:55:35;;;;;;;14.25;12.15;;;25.10;99.90;;;;;;4194636;28;20037;-74
2022/02/17 02:57:40;;;;;;;14.70;11.88;;;25.10;99.90;;;;;;4193924;28;20053;-74
2022/02/17 02:59:47;;;;;;;14.15;12.07;;;25.20;99.90;;;;;;4210573;28;20165;-73
2022/02/17 03:01:59;;;;;;;15.32;11.98;;;25.20;99.90;;;;;;4194073;28;20051;-73
2022/02/17 03:04:04;;;;;;;14.48;12.63;;;25.30;99.90;;;;;;4195076;28;20040;-74
2022/02/17 03:06:12;;;;;;;13.30;11.95;;;25.10;99.90;;;;;;4177662;28;20127;-73
2022/02/17 03:08:18;;;;;;;14.38;10.65;;;25.00;99.90;;;;;;4168062;28;20094;-72
2022/02/17 03:10:23;;;;;;;13.55;10.70;;;25.10;99.90;;;;;;4184536;28;20071;-72
2022/02/17 03:12:29;;;;;;;12.07;10.77;;;25.20;99.90;;;;;;4206742;28;20055;-72
2022/02/17 03:14:37;;;;;;;13.32;11.30;;;25.40;99.90;;;;;;4191726;28;20079;-73
2022/02/17 03:16:42;;;;;;;14.93;11.13;;;25.50;99.90;;;;;;4188529;28;20049;-72
2022/02/17 03:18:49;;;;;;;13.85;11.50;;;25.60;99.90;;;;;;4191786;28;20074;-72
2022/02/17 03:20:55;;;;;;;11.68;10.43;;;25.60;99.90;;;;;;4193119;28;20071;-72
2022/02/17 03:22:59;;;;;;;12.60;10.95;;;25.60;99.90;;;;;;4206329;28;20047;-71
2022/02/17 03:25:09;;;;;;;13.00;10.38;;;25.70;99.90;;;;;;4203612;28;20149;-72
2022/02/17 03:27:16;;;;;;;11.43;10.23;;;25.80;99.90;;;;;;4203435;28;20599;-74
2022/02/17 03:29:22;;;;;;;12.25;9.18;;;25.80;99.90;;;;;;4189905;28;20052;-72
2022/02/17 03:31:28;;;;;;;12.73;9.73;;;25.90;99.90;;;;;;4193110;28;20151;-72
2022/02/17 03:33:43;;;;;;;11.82;9.60;;;26.00;99.90;;;;;;4192233;28;20037;-72
2022/02/17 03:35:47;;;;;;;11.80;10.23;;;26.00;99.90;;;;;;4192862;28;20080;-72
2022/02/17 03:37:54;;;;;;;12.23;10.07;;;26.10;99.90;;;;;;4192576;28;20052;-73
2022/02/17 03:40:02;;;;;;;12.00;9.80;;;26.30;99.90;;;;;;4194480;28;20051;-72
2022/02/17 03:42:17;;;;;;;12.95;10.05;;;26.30;99.90;;;;;;4193038;28;20071;-73
2022/02/17 03:44:23;;;;;;;13.90;10.68;;;26.30;99.90;;;;;;4192869;28;20044;-73
2022/02/17 03:46:35;;;;;;;15.95;10.10;;;26.40;99.90;;;;;;4192878;28;20052;-73
2022/02/17 03:48:43;;;;;;;10.52;9.25;;;26.40;99.90;;;;;;4192990;28;20045;-73
2022/02/17 03:50:53;;;;;;;14.43;9.77;;;26.40;99.90;;;;;;4193504;28;20062;-73
2022/02/17 03:53:00;;;;;;;12.82;9.75;;;26.40;99.90;;;;;;4194229;28;20538;-73
2022/02/17 03:55:10;;;;;;;11.60;9.85;;;26.50;99.90;;;;;;4194438;28;20052;-73
2022/02/17 03:57:20;;;;;;;10.82;8.75;;;26.50;99.90;;;;;;4192393;28;20098;-73
2022/02/17 03:59:25;;;;;;;13.98;9.63;;;26.50;99.90;;;;;;4197486;28;20056;-74
2022/02/17 04:01:32;;;;;;;10.60;9.27;;;26.60;99.90;;;;;;4196468;28;20446;-73
2022/02/17 04:03:41;;;;;;;9.80;8.80;;;26.60;99.90;;;;;;4209811;28;20452;-74
2022/02/17 04:05:46;;;;;;;10.02;9.00;;;26.70;99.90;;;;;;4212940;28;20106;-74
2022/02/17 04:07:53;;;;;;;11.18;9.27;;;26.60;99.90;;;;;;4196260;28;20060;-74
2022/02/17 04:10:01;;;;;;;10.00;8.75;;;26.70;99.90;;;;;;4180204;28;20041;-74
2022/02/17 04:12:08;;;;;;;9.95;7.95;;;26.80;99.90;;;;;;4195799;28;20067;-74
2022/02/17 04:14:16;;;;;;;8.85;7.93;;;26.90;99.90;;;;;;4195970;28;20135;-73
2022/02/17 04:16:29;;;;;;;8.75;7.78;;;27.00;99.90;;;;;;4195939;28;20071;-74
2022/02/17 04:18:47;;;;;;;9.05;7.45;;;27.00;99.90;;;;;;4196541;28;20045;-74
2022/02/17 04:21:05;;;;;;;9.15;7.75;;;27.20;99.90;;;;;;4197107;28;20063;-74
2022/02/17 04:23:32;;;;;;;9.68;7.63;;;27.20;99.90;;;;;;4196944;28;20501;-74
2022/02/17 04:25:37;;;;;;;9.88;6.85;;;27.30;99.90;;;;;;4196955;28;20044;-74
2022/02/17 04:28:00;;;;;;;9.20;7.30;;;27.30;99.90;;;;;;4193833;28;20055;-74
2022/02/17 04:30:08;;;;;;;8.70;7.80;;;27.20;99.90;;;;;;4193047;28;20066;-74
2022/02/17 04:32:13;;;;;;;8.13;7.32;;;27.00;99.90;;;;;;4195161;28;20802;-74
2022/02/17 04:34:21;;;;;;;8.13;7.20;;;27.00;99.90;;;;;;4195457;28;20048;-74
2022/02/17 04:36:34;;;;;;;9.20;7.63;;;27.00;99.90;;;;;;4195070;28;20078;-73
2022/02/17 04:38:40;;;;;;;9.15;7.40;;;27.00;99.90;;;;;;4193599;28;20426;-73
2022/02/17 04:43:09;;;;;;;10.73;7.90;;;27.00;99.90;;;;;;4194507;28;20437;-73
2022/02/17 04:45:18;;;;;;;9.25;8.20;;;27.00;99.90;;;;;;4195878;28;20414;-73
2022/02/17 04:47:29;;;;;;;8.25;7.32;;;27.10;99.90;;;;;;4194570;28;20502;-73
2022/02/17 04:49:36;;;;;;;10.18;8.25;;;27.10;99.90;;;;;;4196086;28;20056;-72
2022/02/17 04:51:40;;;;;;;9.90;7.47;;;27.20;99.90;;;;;;4196228;28;20043;-72
2022/02/17 04:53:53;;;;;;;9.45;8.38;;;27.30;99.90;;;;;;4211852;28;20153;-74
2022/02/17 04:55:59;;;;;;;12.02;8.25;;;27.50;99.90;;;;;;4194532;28;20041;-72
2022/02/17 04:58:07;;;;;;;9.90;8.30;;;27.60;99.90;;;;;;4193736;28;20048;-75
2022/02/17 05:00:14;;;;;;;12.43;8.27;;;27.70;99.90;;;;;;4194516;28;20050;-74
2022/02/17 05:02:22;;;;;;;9.05;7.72;;;27.70;99.90;;;;;;4194630;28;20099;-74
2022/02/17 05:04:30;;;;;;;8.80;7.45;;;27.60;99.90;;;;;;4194817;28;20057;-74
2022/02/17 05:06:41;;;;;;;10.35;8.00;;;27.60;99.90;;;;;;4194450;28;20103;-74
2022/02/17 05:08:53;;;;;;;9.10;8.13;;;27.70;99.90;;;;;;4194668;28;20040;-73
2022/02/17 05:10:58;;;;;;;10.57;8.75;;;27.80;99.90;;;;;;4194548;28;20080;-73
2022/02/17 05:13:05;;;;;;;9.52;7.35;;;27.90;99.90;;;;;;4194442;28;20724;-73
2022/02/17 05:15:12;;;;;;;7.60;6.80;;;28.00;99.90;;;;;;4194239;28;20123;-73
2022/02/17 05:17:18;;;;;;;10.40;7.93;;;28.10;99.90;;;;;;4194521;28;20078;-73
2022/02/17 05:19:25;;;;;;;8.82;7.60;;;28.20;99.90;;;;;;4194045;28;20041;-73
2022/02/17 05:21:44;;;;;;;8.18;7.15;;;28.30;99.90;;;;;;4194987;28;20059;-73
2022/02/17 05:24:02;;;;;;;10.77;7.30;;;28.30;99.90;;;;;;4195542;28;20049;-73
2022/02/17 05:26:20;;;;;;;9.20;7.10;;;28.40;99.90;;;;;;4191819;28;20072;-73
2022/02/17 05:28:38;;;;;;;9.50;7.15;;;28.50;99.90;;;;;;4188536;28;20052;-73
2022/02/17 05:30:54;;;;;;;10.15;7.97;;;28.40;99.90;;;;;;4193370;28;20109;-73
2022/02/17 05:33:20;;;;;;;7.95;6.63;;;28.30;99.50;;;;;;4192372;28;20068;-73
2022/02/17 05:35:47;;;;;;;8.80;6.40;;;28.40;99.60;;;;;;4194239;28;20063;-72
2022/02/17 05:38:11;;;;;;;7.55;6.75;;;28.60;99.80;;;;;;4194065;28;20044;-72
2022/02/17 05:40:30;;;;;;;7.63;6.45;;;28.70;99.30;;;;;;4195310;28;20044;-73
2022/02/17 05:42:37;;;;;;;8.35;7.00;;;28.70;99.60;;;;;;4195122;28;20041;-71
2022/02/17 05:44:43;;;;;;;9.10;7.25;;;28.70;99.50;;;;;;4195272;28;20394;-73
2022/02/17 05:46:49;;;;;;;7.25;6.55;;;28.80;99.20;;;;;;4195025;28;20494;-73
2022/02/17 05:48:56;;;;;;;9.63;6.70;;;28.80;99.20;;;;;;4193597;28;20050;-74
2022/02/17 05:51:01;;;;;;;12.43;7.07;;;28.70;99.30;;;;;;4195300;28;20045;-74
2022/02/17 05:53:09;;;;;;;7.13;6.05;;;28.70;99.30;;;;;;4195220;28;20045;-73
2022/02/17 05:55:18;;;;;;;8.70;6.72;;;28.60;99.20;;;;;;4195240;28;20750;-73
2022/02/17 05:57:25;;;;;;;7.85;6.25;;;28.60;98.90;;;;;;4193629;28;20495;-73
2022/02/17 05:59:31;;;;;;;8.85;6.38;;;28.60;98.70;;;;;;4194442;28;20033;-74
2022/02/17 06:01:38;;;;;;;7.05;6.10;;;28.60;98.90;;;;;;4195049;28;20123;-74
2022/02/17 06:03:47;;;;;;;10.18;6.90;;;28.70;98.70;;;;;;4195048;28;20082;-74
2022/02/17 06:05:53;;;;;;;8.23;6.05;;;28.80;98.60;;;;;;4194955;28;20041;-74
2022/02/17 06:08:00;;;;;;;8.50;6.07;;;28.90;98.40;;;;;;4194612;28;20052;-73
2022/02/17 06:10:07;;;;;;;8.48;6.22;;;28.90;98.40;;;;;;4194334;28;20068;-74
2022/02/17 06:12:13;;;;;;;7.18;5.88;;;28.90;98.20;;;;;;4193749;28;20051;-67
2022/02/17 06:14:20;;;;;;;8.93;6.20;;;29.00;98.70;;;;;;4194254;28;20500;-67
2022/02/17 06:16:25;;;;;;;7.80;6.38;;;28.90;98.00;;;;;;4194274;28;20080;-67
2022/02/17 06:18:33;;;;;;;11.60;6.30;;;29.00;98.00;;;;;;4192906;28;20152;-67
2022/02/17 06:20:40;;;;;;;9.20;5.95;;;29.10;97.60;;;;;;4190391;28;20060;-66
2022/02/17 06:22:45;;;;;;;8.00;5.80;;;29.20;97.70;;;;;;4194395;28;20131;-67
2022/02/17 06:24:53;;;;;;;7.45;6.10;;;29.30;97.90;;;;;;4194109;28;20041;-67
2022/02/17 06:27:00;;;;;;;7.60;6.00;;;29.40;97.60;;;;;;4194205;28;20048;-66
2022/02/17 06:29:04;;;;;;;8.20;6.50;;;29.40;97.70;;;;;;4191840;28;20526;-66
2022/02/17 06:31:10;;;;;;;8.15;6.60;;;29.40;97.50;;;;;;4194051;28;20049;-67
2022/02/17 06:33:17;;;;;;;7.28;6.10;;;29.30;97.70;;;;;;4193854;28;20051;-66
2022/02/17 06:35:23;;;;;;;8.93;6.72;;;29.30;97.80;;;;;;4194190;28;20056;-65
2022/02/17 06:37:30;;;;;;;7.80;6.57;;;29.30;97.80;;;;;;4194268;28;20052;-66
2022/02/17 06:39:37;;;;;;;12.45;8.20;;;29.30;97.70;;;;;;4193843;28;20114;-67
2022/02/17 06:41:41;;;;;;;9.60;7.25;;;29.30;97.30;;;;;;4194056;28;20048;-67
2022/02/17 06:43:48;;;;;;;9.13;7.47;;;29.20;97.80;;;;;;4192746;28;20136;-67
2022/02/17 06:45:55;;;;;;;9.60;7.22;;;29.20;97.90;;;;;;4194055;28;20041;-67
2022/02/17 06:48:00;;;;;;;9.07;7.18;;;29.20;98.10;;;;;;4193790;28;20465;-67
2022/02/17 06:50:06;;;;;;;9.23;6.93;;;29.20;98.10;;;;;;4193530;28;20044;-67
2022/02/17 06:52:13;;;;;;;10.05;7.50;;;29.30;97.90;;;;;;4194376;28;20513;-67
2022/02/17 06:54:17;;;;;;;9.02;7.72;;;29.30;97.00;;;;;;4194120;28;20090;-67
2022/02/17 06:56:23;;;;;;;11.57;7.97;;;29.20;97.30;;;;;;4192063;28;20056;-67
2022/02/17 06:58:31;;;;;;;11.02;7.70;;;29.20;97.60;;;;;;4191945;28;20102;-67
2022/02/17 07:00:40;;;;;;;7.82;6.65;;;29.20;97.80;;;;;;4192845;28;20055;-67
2022/02/17 07:02:53;;;;;;;11.00;7.80;;;29.30;97.90;;;;;;4193897;28;20056;-66
2022/02/17 07:04:58;;;;;;;10.18;7.85;;;29.30;97.90;;;;;;4194455;28;20413;-67
2022/02/17 07:07:02;;;;;;;10.63;7.72;;;29.30;97.80;;;;;;4193890;28;20062;-67
2022/02/17 07:09:09;;;;;;;8.70;7.35;;;29.40;97.80;;;;;;4192660;28;20044;-67
2022/02/17 07:11:13;;;;;;;10.18;7.07;;;29.40;97.80;;;;;;4193242;28;20048;-67
2022/02/17 07:13:18;;;;;;;9.65;7.78;;;29.50;97.80;;;;;;4193914;28;20048;-67
2022/02/17 07:15:22;;;;;;;9.77;7.97;;;29.40;97.40;;;;;;4192571;28;20044;-67
2022/02/17 07:17:29;;;;;;;12.07;9.15;;;29.40;97.40;;;;;;4190297;28;20052;-67
2022/02/17 07:19:33;;;;;;;11.82;9.00;;;29.40;97.40;;;;;;4193004;28;20048;-67
2022/02/17 07:21:41;;;;;;;9.63;8.52;;;29.40;97.50;;;;;;4193980;28;20422;-67
2022/02/17 07:23:47;;;;;;;13.68;9.20;;;29.30;97.60;;;;;;4193223;28;20056;-67
2022/02/17 07:25:52;;;;;;;9.88;8.57;;;29.30;97.10;;;;;;4193447;28;20511;-66
2022/02/17 07:27:57;;;;;;;11.18;8.20;;;29.30;97.10;;;;;;4192769;28;20741;-67
2022/02/17 07:30:02;;;;;;;14.13;8.93;;;29.30;97.00;;;;;;4187627;28;20044;-66
2022/02/17 07:32:08;;;;;;;9.45;8.30;;;29.30;96.90;;;;;;4196237;28;20048;-67
2022/02/17 07:34:14;;;;;;;12.18;8.15;;;29.40;96.50;;;;;;4196300;28;20487;-67
2022/02/17 07:36:21;;;;;;;9.38;8.23;;;29.30;97.10;;;;;;4196133;28;20056;-66
2022/02/17 07:38:26;;;;;;;12.32;9.57;;;29.40;96.50;;;;;;4196072;28;20064;-66
2022/02/17 07:40:33;;;;;;;10.70;9.35;;;29.40;96.40;;;;;;4194062;28;20114;-67
2022/02/17 07:42:41;;;;;;;11.57;9.10;;;29.40;96.20;;;;;;4196988;28;20049;-67
2022/02/17 07:44:56;;;;;;;10.75;9.02;;;29.50;96.70;;;;;;4196879;28;20107;-66
2022/02/17 07:47:03;;;;;;;13.20;8.88;;;29.50;96.80;;;;;;4197028;28;20513;-66
2022/02/17 07:49:09;;;;;;;11.82;9.02;;;29.50;96.20;;;;;;4197268;28;20113;-67
2022/02/17 07:51:15;;;;;;;10.00;9.00;;;29.40;96.60;;;;;;4194946;28;20104;-67
2022/02/17 07:53:23;;;;;;;13.77;9.95;;;29.40;96.60;;;;;;4197619;28;20072;-67
2022/02/17 07:55:29;;;;;;;14.82;10.15;;;29.50;96.30;;;;;;4196175;28;20060;-66
2022/02/17 07:57:35;;;;;;;13.32;10.10;;;29.60;96.10;;;;;;4197081;28;20075;-67
2022/02/17 07:59:40;;;;;;;12.60;10.05;;;29.70;96.10;;;;;;4196431;28;20074;-67
2022/02/17 08:01:47;;;;;;;10.68;9.57;;;29.80;96.00;;;;;;4193638;28;20063;-66
2022/02/17 08:03:54;;;;;;;11.10;9.82;;;29.80;95.60;;;;;;4196923;28;20721;-66
2022/02/17 08:06:00;;;;;;;11.18;9.27;;;29.70;96.10;;;;;;4212089;28;20122;-67
2022/02/17 08:08:25;;;;;;;11.30;9.38;;;29.70;96.40;;;;;;4209439;28;20060;-67
2022/02/17 08:10:30;;;;;;;12.75;9.65;;;29.60;96.50;;;;;;4195944;28;20040;-67
2022/02/17 08:12:42;;;;;;;13.80;9.50;;;29.70;96.40;;;;;;4197198;28;20043;-67
2022/02/17 08:14:49;;;;;;;12.02;10.13;;;29.70;96.20;;;;;;4196579;28;20056;-67
2022/02/17 08:16:55;;;;;;;10.77;9.55;;;29.60;96.20;;;;;;4196826;28;20127;-67
2022/02/17 08:19:00;;;;;;;13.73;9.82;;;29.60;96.30;;;;;;4194660;28;20060;-67
2022/02/17 08:21:19;;;;;;;10.77;9.50;;;29.60;96.30;;;;;;4194442;28;20045;-66
2022/02/17 08:23:23;;;;;;;10.57;9.40;;;29.50;96.30;;;;;;4196638;28;20079;-67
2022/02/17 08:25:30;;;;;;;11.38;9.18;;;29.50;96.20;;;;;;4194198;28;20407;-66
2022/02/17 08:27:39;;;;;;;10.43;8.77;;;29.50;96.40;;;;;;4196014;28;20109;-67
2022/02/17 08:29:44;;;;;;;11.23;9.10;;;29.50;96.50;;;;;;4196635;28;20672;-67
2022/02/17 08:31:50;;;;;;;11.68;9.75;;;29.60;96.60;;;;;;4195997;28;20044;-67
2022/02/17 08:34:04;;;;;;;11.20;9.43;;;29.60;96.60;;;;;;4196743;28;20052;-67
2022/02/17 08:36:08;;;;;;;11.40;9.30;;;29.60;96.50;;;;;;4196585;28;20056;-67
2022/02/17 08:38:14;;;;;;;11.55;9.35;;;29.60;96.30;;;;;;4196259;28;20094;-63
2022/02/17 08:40:20;;;;;;;13.43;9.48;;;29.50;96.20;;;;;;4195655;28;20117;-64
2022/02/17 08:42:25;;;;;;;11.70;9.20;;;29.50;96.40;;;;;;4195518;28;20044;-67
2022/02/17 08:44:30;;;;;;;11.68;8.10;;;29.40;96.30;;;;;;4195406;28;20049;-68
2022/02/17 08:46:38;;;;;;;9.02;7.60;;;29.40;96.30;;;;;;4185925;28;20777;-67
2022/02/17 08:48:42;;;;;;;9.60;7.72;;;29.40;96.30;;;;;;4192971;28;20117;-68
2022/02/17 08:50:48;;;;;;;9.98;7.90;;;29.40;96.40;;;;;;4191757;28;20052;-68
2022/02/17 08:52:53;;;;;;;9.65;8.07;;;29.40;96.40;;;;;;4194810;28;20057;-68
2022/02/17 08:55:18;;;;;;;10.18;7.43;;;29.40;96.40;;;;;;4195046;28;20478;-67
2022/02/17 08:57:24;;;;;;;9.73;8.55;;;29.40;96.30;;;;;;4193967;28;20047;-67
2022/02/17 08:59:33;;;;;;;8.10;7.25;;;29.40;96.30;;;;;;4178345;28;21575;-68
2022/02/17 09:01:38;;;;;;;10.48;7.43;;;29.40;96.20;;;;;;4178969;28;20045;-68
2022/02/17 09:03:44;;;;;;;8.65;7.45;;;29.40;96.20;;;;;;4186720;28;20068;-67
2022/02/17 09:05:51;;;;;;;9.07;7.65;;;29.30;96.30;;;;;;4188210;28;20052;-68
2022/02/17 09:08:15;;;;;;;9.70;7.88;;;29.30;96.60;;;;;;4194235;28;20433;-68
2022/02/17 09:10:23;;;;;;;8.27;7.35;;;29.30;96.30;;;;;;4193101;28;20635;-68
2022/02/17 09:12:35;;;;;;;10.98;8.10;;;29.20;96.40;;;;;;4193133;28;20044;-67
2022/02/17 09:14:39;;;;;;;11.60;7.93;;;29.20;96.20;;;;;;4195404;28;20057;-68
2022/02/17 09:16:46;;;;;;;10.50;7.57;;;29.30;96.20;;;;;;4195010;28;20048;-67
2022/02/17 09:18:53;;;;;;;8.70;7.32;;;29.20;96.30;;;;;;4196135;28;20056;-67
2022/02/17 09:20:57;;;;;;;12.18;7.68;;;29.20;96.30;;;;;;4194446;28;20048;-67
2022/02/17 09:23:02;;;;;;;10.10;8.18;;;29.20;96.40;;;;;;4194588;28;20783;-68
2022/02/17 09:25:09;;;;;;;9.38;8.35;;;29.20;96.40;;;;;;4190305;28;20071;-67
2022/02/17 09:27:14;;;;;;;8.82;7.93;;;29.20;96.30;;;;;;4187817;28;20048;-68
2022/02/17 09:29:19;;;;;;;12.93;8.60;;;29.20;96.40;;;;;;4193430;28;20044;-69
2022/02/17 09:31:44;;;;;;;13.23;8.90;;;29.20;96.40;;;;;;4194686;28;20497;-67
2022/02/17 09:33:50;;;;;;;12.82;9.30;;;29.20;96.70;;;;;;4195320;28;20040;-67
2022/02/17 09:35:55;;;;;;;12.07;10.00;;;29.30;96.80;;;;;;4192997;28;21180;-67
2022/02/17 09:38:00;;;;;;;13.27;9.35;;;29.20;96.60;;;;;;4190593;28;20291;-67
2022/02/17 09:40:05;;;;;;;13.02;9.00;;;29.20;96.40;;;;;;4194217;28;20794;-67
2022/02/17 09:42:15;;;;;;;9.90;8.57;;;29.30;96.60;;;;;;4190630;28;20063;-67
2022/02/17 09:44:22;;;;;;;11.55;9.02;;;29.30;96.50;;;;;;4195500;28;20482;-67
2022/02/17 09:46:26;;;;;;;11.05;8.35;;;29.30;96.50;;;;;;4193434;28;20044;-67
2022/02/17 09:48:33;;;;;;;10.73;8.00;;;29.30;96.40;;;;;;4193842;28;20049;-67
2022/02/17 09:50:39;;;;;;;11.15;8.15;;;29.30;96.70;;;;;;4195789;28;20068;-67
2022/02/17 09:52:45;;;;;;;12.10;9.73;;;29.30;96.60;;;;;;4195751;28;20418;-68
2022/02/17 09:54:51;;;;;;;13.20;9.05;;;29.30;96.50;;;;;;4195481;28;20049;-68
2022/02/17 09:56:57;;;;;;;10.85;8.60;;;29.30;96.50;;;;;;4193384;28;20056;-67
2022/02/17 09:59:02;;;;;;;9.98;8.32;;;29.40;96.40;;;;;;4194740;28;20591;-68
2022/02/17 10:01:06;;;;;;;13.30;9.57;;;29.30;96.10;;;;;;4194541;28;20044;-68
2022/02/17 10:03:21;;;;;;;12.45;9.10;;;29.30;96.30;;;;;;4194331;28;20062;-68
2022/02/17 10:05:26;;;;;;;12.82;9.73;;;29.30;96.60;;;;;;4194335;28;20992;-68
2022/02/17 10:07:39;;;;;;;14.00;10.30;;;29.30;96.90;;;;;;4184963;28;20053;-68
2022/02/17 10:09:46;;;;;;;13.40;10.18;;;29.30;97.10;;;;;;4174227;28;20059;-67
2022/02/17 10:11:53;;;;;;;12.98;10.18;;;29.30;97.30;;;;;;4178361;28;20459;-68
2022/02/17 10:14:05;;;;;;;14.55;9.88;;;29.30;97.50;;;;;;4178164;28;20055;-68
2022/02/17 10:16:12;;;;;;;15.70;10.05;;;29.30;97.60;;;;;;4177961;28;20395;-68
2022/02/17 10:18:18;;;;;;;11.98;9.38;;;29.30;97.60;;;;;;4175623;28;20060;-68
2022/02/17 10:20:27;;;;;;;14.38;10.65;;;29.30;97.50;;;;;;4176665;28;20045;-67
2022/02/17 10:22:35;;;;;;;13.75;10.10;;;29.20;97.80;;;;;;4173304;28;20041;-68
2022/02/17 10:24:45;;;;;;;11.90;9.83;;;29.10;97.80;;;;;;2405899;28;10003113;-68
2022/02/17 10:27:03;;;;;;;13.25;10.13;;;29.00;97.90;;;;;;4154714;28;20872;-68
2022/02/17 10:29:11;;;;;;;14.57;10.13;;;29.00;97.80;;;;;;4180319;28;20052;-69
2022/02/17 10:31:27;;;;;;;11.82;9.32;;;28.90;97.90;;;;;;4142413;28;20054;-68
2022/02/17 10:33:41;;;;;;;11.45;8.57;;;28.90;98.00;;;;;;4175128;28;20072;-69
2022/02/17 10:35:55;;;;;;;14.10;9.95;;;29.00;98.00;;;;;;4174167;28;20111;-68
2022/02/17 10:38:01;;;;;;;12.68;9.80;;;28.90;98.30;;;;;;4157955;28;20518;-69
2022/02/17 10:40:34;;;;;;;12.00;9.02;;;28.90;98.60;;;;;;4159793;28;20573;-67
2022/02/17 10:42:41;;;;;;;11.60;8.75;;;28.80;98.80;;;;;;4167130;28;20056;-67
2022/02/17 10:45:21;;;;;;;13.83;8.50;;;28.80;99.20;;;;;;3286924;28;10000862;-66
2022/02/17 10:47:28;;;;;;;12.30;9.52;;;28.70;99.40;;;;;;4165784;28;20045;-68
2022/02/17 10:49:37;;;;;;;13.45;9.70;;;28.70;99.40;;;;;;4165535;28;20041;-68
2022/02/17 10:51:41;;;;;;;11.18;9.32;;;28.70;99.60;;;;;;4155951;28;20140;-68
2022/02/17 10:53:57;;;;;;;12.13;10.25;;;28.70;99.80;;;;;;4172018;28;20152;-68
2022/02/17 10:56:05;;;;;;;13.48;9.15;;;28.70;99.80;;;;;;4154297;28;20088;-67
2022/02/17 10:58:18;;;;;;;15.45;9.80;;;28.70;99.80;;;;;;4162207;28;20048;-68
2022/02/17 11:00:27;;;;;;;11.82;9.20;;;28.70;99.90;;;;;;4174819;28;20049;-67